sensor_id;sensor_type;location;lat;lon;timestamp;temperature;humidity
43999;DHT22;51319;52.162;5.302;2023-07-02T00:00:06;17.40;94.80
43999;DHT22;51319;52.162;5.302;2023-07-02T00:02:34;17.40;95.10
43999;DHT22;51319;52.162;5.302;2023-07-02T00:05:01;17.40;95.20
43999;DHT22;51319;52.162;5.302;2023-07-02T00:07:28;17.40;95.40
43999;DHT22;51319;52.162;5.302;2023-07-02T00:09:55;17.20;95.30
43999;DHT22;51319;52.162;5.302;2023-07-02T00:12:22;17.10;95.60
43999;DHT22;51319;52.162;5.302;2023-07-02T00:14:48;17.00;96.00
43999;DHT22;51319;52.162;5.302;2023-07-02T00:17:20;17.00;96.40
43999;DHT22;51319;52.162;5.302;2023-07-02T00:19:47;17.00;96.90
43999;DHT22;51319;52.162;5.302;2023-07-02T00:22:18;16.90;97.10
43999;DHT22;51319;52.162;5.302;2023-07-02T00:24:45;16.90;96.90
43999;DHT22;51319;52.162;5.302;2023-07-02T00:27:12;16.90;96.80
43999;DHT22;51319;52.162;5.302;2023-07-02T00:29:39;16.90;96.50
43999;DHT22;51319;52.162;5.302;2023-07-02T00:32:06;16.90;96.30
43999;DHT22;51319;52.162;5.302;2023-07-02T00:34:33;16.90;96.10
43999;DHT22;51319;52.162;5.302;2023-07-02T00:37:00;16.90;96.10
43999;DHT22;51319;52.162;5.302;2023-07-02T00:39:27;16.90;95.70
43999;DHT22;51319;52.162;5.302;2023-07-02T00:41:54;16.80;95.40
43999;DHT22;51319;52.162;5.302;2023-07-02T00:44:26;16.80;95.00
43999;DHT22;51319;52.162;5.302;2023-07-02T00:46:53;16.70;94.90
43999;DHT22;51319;52.162;5.302;2023-07-02T00:49:20;16.70;94.60
43999;DHT22;51319;52.162;5.302;2023-07-02T00:51:47;16.60;94.30
43999;DHT22;51319;52.162;5.302;2023-07-02T00:54:14;16.60;94.00
43999;DHT22;51319;52.162;5.302;2023-07-02T00:56:41;16.50;93.90
43999;DHT22;51319;52.162;5.302;2023-07-02T00:59:08;16.40;94.20
43999;DHT22;51319;52.162;5.302;2023-07-02T01:01:35;16.40;94.40
43999;DHT22;51319;52.162;5.302;2023-07-02T01:04:06;16.40;94.30
43999;DHT22;51319;52.162;5.302;2023-07-02T01:06:39;16.30;94.40
43999;DHT22;51319;52.162;5.302;2023-07-02T01:09:09;16.30;94.50
43999;DHT22;51319;52.162;5.302;2023-07-02T01:11:58;16.20;94.60
43999;DHT22;51319;52.162;5.302;2023-07-02T01:14:26;16.10;95.00
43999;DHT22;51319;52.162;5.302;2023-07-02T01:16:55;16.00;95.10
43999;DHT22;51319;52.162;5.302;2023-07-02T01:22:11;15.80;95.50
43999;DHT22;51319;52.162;5.302;2023-07-02T01:24:39;15.70;95.40
43999;DHT22;51319;52.162;5.302;2023-07-02T01:27:06;15.50;95.40
43999;DHT22;51319;52.162;5.302;2023-07-02T01:29:33;15.40;95.50
43999;DHT22;51319;52.162;5.302;2023-07-02T01:32:04;15.30;95.70
43999;DHT22;51319;52.162;5.302;2023-07-02T01:34:31;15.20;95.70
43999;DHT22;51319;52.162;5.302;2023-07-02T01:36:58;15.10;95.70
43999;DHT22;51319;52.162;5.302;2023-07-02T01:39:28;15.10;95.70
43999;DHT22;51319;52.162;5.302;2023-07-02T01:42:07;15.00;95.60
43999;DHT22;51319;52.162;5.302;2023-07-02T01:44:35;14.90;95.60
43999;DHT22;51319;52.162;5.302;2023-07-02T01:47:03;14.90;95.60
43999;DHT22;51319;52.162;5.302;2023-07-02T01:49:30;14.90;95.80
43999;DHT22;51319;52.162;5.302;2023-07-02T01:51:57;14.90;95.90
43999;DHT22;51319;52.162;5.302;2023-07-02T01:54:26;14.80;95.90
43999;DHT22;51319;52.162;5.302;2023-07-02T01:56:56;14.80;95.80
43999;DHT22;51319;52.162;5.302;2023-07-02T01:59:23;14.70;95.80
43999;DHT22;51319;52.162;5.302;2023-07-02T02:01:52;14.70;95.70
43999;DHT22;51319;52.162;5.302;2023-07-02T02:04:19;14.70;95.60
43999;DHT22;51319;52.162;5.302;2023-07-02T02:06:46;14.60;95.50
43999;DHT22;51319;52.162;5.302;2023-07-02T02:09:13;14.60;95.70
43999;DHT22;51319;52.162;5.302;2023-07-02T02:11:43;14.50;95.70
43999;DHT22;51319;52.162;5.302;2023-07-02T02:14:10;14.50;95.90
43999;DHT22;51319;52.162;5.302;2023-07-02T02:16:37;14.40;96.10
43999;DHT22;51319;52.162;5.302;2023-07-02T02:19:04;14.40;96.30
43999;DHT22;51319;52.162;5.302;2023-07-02T02:21:32;14.30;96.50
43999;DHT22;51319;52.162;5.302;2023-07-02T02:23:59;14.30;96.70
43999;DHT22;51319;52.162;5.302;2023-07-02T02:26:26;14.20;97.00
43999;DHT22;51319;52.162;5.302;2023-07-02T02:28:53;14.20;97.20
43999;DHT22;51319;52.162;5.302;2023-07-02T02:31:22;14.10;97.30
43999;DHT22;51319;52.162;5.302;2023-07-02T02:33:49;14.10;97.40
43999;DHT22;51319;52.162;5.302;2023-07-02T02:36:17;14.00;97.30
43999;DHT22;51319;52.162;5.302;2023-07-02T02:38:44;14.00;97.20
43999;DHT22;51319;52.162;5.302;2023-07-02T02:41:11;13.90;97.10
43999;DHT22;51319;52.162;5.302;2023-07-02T02:43:41;13.80;97.10
43999;DHT22;51319;52.162;5.302;2023-07-02T02:46:11;13.80;97.10
43999;DHT22;51319;52.162;5.302;2023-07-02T02:48:38;13.80;97.10
43999;DHT22;51319;52.162;5.302;2023-07-02T02:51:05;13.80;97.60
43999;DHT22;51319;52.162;5.302;2023-07-02T02:53:33;13.80;97.30
43999;DHT22;51319;52.162;5.302;2023-07-02T02:56:00;13.80;97.40
43999;DHT22;51319;52.162;5.302;2023-07-02T02:58:26;13.70;97.30
43999;DHT22;51319;52.162;5.302;2023-07-02T03:00:54;13.60;97.40
43999;DHT22;51319;52.162;5.302;2023-07-02T03:03:22;13.60;97.60
43999;DHT22;51319;52.162;5.302;2023-07-02T03:05:51;13.50;97.70
43999;DHT22;51319;52.162;5.302;2023-07-02T03:08:18;13.50;97.70
43999;DHT22;51319;52.162;5.302;2023-07-02T03:10:45;13.40;97.80
43999;DHT22;51319;52.162;5.302;2023-07-02T03:13:12;13.40;98.00
43999;DHT22;51319;52.162;5.302;2023-07-02T03:15:39;13.40;98.10
43999;DHT22;51319;52.162;5.302;2023-07-02T03:18:06;13.40;98.20
43999;DHT22;51319;52.162;5.302;2023-07-02T03:20:33;13.40;98.30
43999;DHT22;51319;52.162;5.302;2023-07-02T03:23:00;13.40;98.30
43999;DHT22;51319;52.162;5.302;2023-07-02T03:25:27;13.30;98.20
43999;DHT22;51319;52.162;5.302;2023-07-02T03:27:53;13.30;98.30
43999;DHT22;51319;52.162;5.302;2023-07-02T03:30:20;13.30;98.30
43999;DHT22;51319;52.162;5.302;2023-07-02T03:32:47;13.30;98.20
43999;DHT22;51319;52.162;5.302;2023-07-02T03:35:14;13.30;98.10
43999;DHT22;51319;52.162;5.302;2023-07-02T03:37:41;13.20;98.20
43999;DHT22;51319;52.162;5.302;2023-07-02T03:40:10;13.30;98.20
43999;DHT22;51319;52.162;5.302;2023-07-02T03:42:37;13.30;98.20
43999;DHT22;51319;52.162;5.302;2023-07-02T03:45:05;13.30;98.10
43999;DHT22;51319;52.162;5.302;2023-07-02T03:47:32;13.20;98.10
43999;DHT22;51319;52.162;5.302;2023-07-02T03:49:59;13.20;98.10
43999;DHT22;51319;52.162;5.302;2023-07-02T03:52:26;13.20;98.10
43999;DHT22;51319;52.162;5.302;2023-07-02T03:54:53;13.20;98.10
43999;DHT22;51319;52.162;5.302;2023-07-02T03:57:20;13.20;98.10
43999;DHT22;51319;52.162;5.302;2023-07-02T03:59:47;13.30;98.00
43999;DHT22;51319;52.162;5.302;2023-07-02T04:02:14;13.30;98.10
43999;DHT22;51319;52.162;5.302;2023-07-02T04:04:41;13.40;97.90
43999;DHT22;51319;52.162;5.302;2023-07-02T04:07:08;13.30;97.70
43999;DHT22;51319;52.162;5.302;2023-07-02T04:09:35;13.40;97.80
43999;DHT22;51319;52.162;5.302;2023-07-02T04:12:02;13.40;97.90
43999;DHT22;51319;52.162;5.302;2023-07-02T04:14:28;13.40;98.00
43999;DHT22;51319;52.162;5.302;2023-07-02T04:16:55;13.40;98.10
43999;DHT22;51319;52.162;5.302;2023-07-02T04:19:22;13.40;98.20
43999;DHT22;51319;52.162;5.302;2023-07-02T04:21:49;13.40;98.20
43999;DHT22;51319;52.162;5.302;2023-07-02T04:24:16;13.40;98.20
43999;DHT22;51319;52.162;5.302;2023-07-02T04:26:44;13.40;98.20
43999;DHT22;51319;52.162;5.302;2023-07-02T04:29:31;13.30;98.10
43999;DHT22;51319;52.162;5.302;2023-07-02T04:31:58;13.40;98.20
43999;DHT22;51319;52.162;5.302;2023-07-02T04:34:25;13.40;98.00
43999;DHT22;51319;52.162;5.302;2023-07-02T04:36:51;13.40;98.00
43999;DHT22;51319;52.162;5.302;2023-07-02T04:39:19;13.50;97.90
43999;DHT22;51319;52.162;5.302;2023-07-02T04:41:46;13.60;97.80
43999;DHT22;51319;52.162;5.302;2023-07-02T04:44:19;13.70;97.60
43999;DHT22;51319;52.162;5.302;2023-07-02T04:46:48;13.70;97.40
43999;DHT22;51319;52.162;5.302;2023-07-02T04:49:15;13.80;97.30
43999;DHT22;51319;52.162;5.302;2023-07-02T04:51:42;13.90;97.10
43999;DHT22;51319;52.162;5.302;2023-07-02T04:54:09;13.90;96.80
43999;DHT22;51319;52.162;5.302;2023-07-02T04:56:36;14.00;96.80
43999;DHT22;51319;52.162;5.302;2023-07-02T04:59:03;14.10;96.60
43999;DHT22;51319;52.162;5.302;2023-07-02T05:01:30;14.10;96.40
43999;DHT22;51319;52.162;5.302;2023-07-02T05:03:57;14.20;96.10
43999;DHT22;51319;52.162;5.302;2023-07-02T05:06:24;14.30;95.70
43999;DHT22;51319;52.162;5.302;2023-07-02T05:08:51;14.40;95.50
43999;DHT22;51319;52.162;5.302;2023-07-02T05:11:19;14.50;95.10
43999;DHT22;51319;52.162;5.302;2023-07-02T05:13:46;14.60;94.90
43999;DHT22;51319;52.162;5.302;2023-07-02T05:16:13;14.70;94.60
43999;DHT22;51319;52.162;5.302;2023-07-02T05:18:40;14.80;94.20
43999;DHT22;51319;52.162;5.302;2023-07-02T05:21:07;14.80;94.00
43999;DHT22;51319;52.162;5.302;2023-07-02T05:23:34;14.90;93.80
43999;DHT22;51319;52.162;5.302;2023-07-02T05:26:01;15.00;93.70
43999;DHT22;51319;52.162;5.302;2023-07-02T05:28:29;15.10;93.50
43999;DHT22;51319;52.162;5.302;2023-07-02T05:30:56;15.20;93.30
43999;DHT22;51319;52.162;5.302;2023-07-02T05:33:22;15.30;93.10
43999;DHT22;51319;52.162;5.302;2023-07-02T05:35:49;15.40;92.80
43999;DHT22;51319;52.162;5.302;2023-07-02T05:38:18;15.50;92.80
43999;DHT22;51319;52.162;5.302;2023-07-02T05:40:45;15.60;92.80
43999;DHT22;51319;52.162;5.302;2023-07-02T05:43:13;15.80;92.60
43999;DHT22;51319;52.162;5.302;2023-07-02T05:45:40;16.00;92.10
43999;DHT22;51319;52.162;5.302;2023-07-02T05:48:07;16.20;91.70
43999;DHT22;51319;52.162;5.302;2023-07-02T05:50:34;16.40;91.30
43999;DHT22;51319;52.162;5.302;2023-07-02T05:53:01;16.60;90.70
43999;DHT22;51319;52.162;5.302;2023-07-02T05:55:28;16.80;90.30
43999;DHT22;51319;52.162;5.302;2023-07-02T05:57:55;17.00;90.10
43999;DHT22;51319;52.162;5.302;2023-07-02T06:00:24;17.30;89.30
43999;DHT22;51319;52.162;5.302;2023-07-02T06:02:51;17.60;87.50
43999;DHT22;51319;52.162;5.302;2023-07-02T06:05:18;17.90;85.70
43999;DHT22;51319;52.162;5.302;2023-07-02T06:07:45;18.20;84.50
43999;DHT22;51319;52.162;5.302;2023-07-02T06:10:12;18.50;82.00
43999;DHT22;51319;52.162;5.302;2023-07-02T06:12:39;18.70;80.80
43999;DHT22;51319;52.162;5.302;2023-07-02T06:15:06;18.90;79.30
43999;DHT22;51319;52.162;5.302;2023-07-02T06:17:33;19.20;77.90
43999;DHT22;51319;52.162;5.302;2023-07-02T06:20:03;19.50;76.50
43999;DHT22;51319;52.162;5.302;2023-07-02T06:22:34;19.70;75.10
43999;DHT22;51319;52.162;5.302;2023-07-02T06:25:01;20.00;74.80
43999;DHT22;51319;52.162;5.302;2023-07-02T06:27:31;20.30;73.30
43999;DHT22;51319;52.162;5.302;2023-07-02T06:29:58;20.30;72.40
43999;DHT22;51319;52.162;5.302;2023-07-02T06:32:25;20.30;72.10
43999;DHT22;51319;52.162;5.302;2023-07-02T06:34:52;20.70;71.00
43999;DHT22;51319;52.162;5.302;2023-07-02T06:37:19;20.90;69.50
43999;DHT22;51319;52.162;5.302;2023-07-02T06:39:46;20.40;68.40
43999;DHT22;51319;52.162;5.302;2023-07-02T06:42:13;19.80;69.10
43999;DHT22;51319;52.162;5.302;2023-07-02T06:44:41;19.90;70.00
43999;DHT22;51319;52.162;5.302;2023-07-02T06:47:08;20.50;68.90
43999;DHT22;51319;52.162;5.302;2023-07-02T06:49:36;21.10;67.70
43999;DHT22;51319;52.162;5.302;2023-07-02T06:52:03;21.70;65.60
43999;DHT22;51319;52.162;5.302;2023-07-02T06:54:30;22.10;63.60
43999;DHT22;51319;52.162;5.302;2023-07-02T06:56:57;22.60;62.30
43999;DHT22;51319;52.162;5.302;2023-07-02T06:59:24;23.20;60.60
43999;DHT22;51319;52.162;5.302;2023-07-02T07:01:51;23.60;59.70
43999;DHT22;51319;52.162;5.302;2023-07-02T07:04:18;23.70;57.60
43999;DHT22;51319;52.162;5.302;2023-07-02T07:06:45;23.70;56.30
43999;DHT22;51319;52.162;5.302;2023-07-02T07:09:12;23.90;56.20
43999;DHT22;51319;52.162;5.302;2023-07-02T07:11:39;24.30;55.80
43999;DHT22;51319;52.162;5.302;2023-07-02T07:14:07;24.60;54.70
43999;DHT22;51319;52.162;5.302;2023-07-02T07:16:33;24.90;53.90
43999;DHT22;51319;52.162;5.302;2023-07-02T07:19:01;25.00;53.40
43999;DHT22;51319;52.162;5.302;2023-07-02T07:21:28;25.00;53.60
43999;DHT22;51319;52.162;5.302;2023-07-02T07:23:55;24.70;53.60
43999;DHT22;51319;52.162;5.302;2023-07-02T07:26:22;25.00;53.20
43999;DHT22;51319;52.162;5.302;2023-07-02T07:28:49;25.00;52.20
43999;DHT22;51319;52.162;5.302;2023-07-02T07:31:16;25.10;51.30
43999;DHT22;51319;52.162;5.302;2023-07-02T07:33:43;25.60;50.80
43999;DHT22;51319;52.162;5.302;2023-07-02T07:36:10;26.10;50.20
43999;DHT22;51319;52.162;5.302;2023-07-02T07:38:37;26.70;49.60
43999;DHT22;51319;52.162;5.302;2023-07-02T07:41:04;26.90;47.50
43999;DHT22;51319;52.162;5.302;2023-07-02T07:43:31;27.20;47.50
43999;DHT22;51319;52.162;5.302;2023-07-02T07:45:58;27.60;47.10
43999;DHT22;51319;52.162;5.302;2023-07-02T07:48:26;28.00;45.70
43999;DHT22;51319;52.162;5.302;2023-07-02T07:50:53;28.00;45.20
43999;DHT22;51319;52.162;5.302;2023-07-02T07:53:20;28.10;45.00
43999;DHT22;51319;52.162;5.302;2023-07-02T07:55:47;27.80;45.00
43999;DHT22;51319;52.162;5.302;2023-07-02T07:58:14;27.20;45.00
43999;DHT22;51319;52.162;5.302;2023-07-02T08:00:41;26.80;46.60
43999;DHT22;51319;52.162;5.302;2023-07-02T08:03:09;26.80;46.50
43999;DHT22;51319;52.162;5.302;2023-07-02T08:05:36;26.70;46.90
43999;DHT22;51319;52.162;5.302;2023-07-02T08:08:03;25.80;47.00
43999;DHT22;51319;52.162;5.302;2023-07-02T08:10:31;25.00;47.70
43999;DHT22;51319;52.162;5.302;2023-07-02T08:12:58;25.10;48.40
43999;DHT22;51319;52.162;5.302;2023-07-02T08:15:25;26.10;47.30
43999;DHT22;51319;52.162;5.302;2023-07-02T08:17:52;26.40;47.00
43999;DHT22;51319;52.162;5.302;2023-07-02T08:20:21;25.60;47.00
43999;DHT22;51319;52.162;5.302;2023-07-02T08:22:48;24.70;49.00
43999;DHT22;51319;52.162;5.302;2023-07-02T08:25:18;23.90;49.90
43999;DHT22;51319;52.162;5.302;2023-07-02T08:27:45;24.20;51.70
43999;DHT22;51319;52.162;5.302;2023-07-02T08:30:12;25.90;50.10
43999;DHT22;51319;52.162;5.302;2023-07-02T08:32:39;26.80;47.50
43999;DHT22;51319;52.162;5.302;2023-07-02T08:35:06;26.40;46.90
43999;DHT22;51319;52.162;5.302;2023-07-02T08:37:33;26.60;46.20
43999;DHT22;51319;52.162;5.302;2023-07-02T08:40:00;27.60;45.10
43999;DHT22;51319;52.162;5.302;2023-07-02T08:42:27;28.60;43.90
43999;DHT22;51319;52.162;5.302;2023-07-02T08:44:57;29.50;43.10
43999;DHT22;51319;52.162;5.302;2023-07-02T08:47:25;29.10;41.00
43999;DHT22;51319;52.162;5.302;2023-07-02T08:49:52;27.70;41.90
43999;DHT22;51319;52.162;5.302;2023-07-02T08:52:20;26.80;42.90
43999;DHT22;51319;52.162;5.302;2023-07-02T08:54:46;27.30;44.60
43999;DHT22;51319;52.162;5.302;2023-07-02T08:57:13;28.40;43.20
43999;DHT22;51319;52.162;5.302;2023-07-02T08:59:40;27.90;42.10
43999;DHT22;51319;52.162;5.302;2023-07-02T09:02:07;27.60;43.70
43999;DHT22;51319;52.162;5.302;2023-07-02T09:04:34;28.80;42.90
43999;DHT22;51319;52.162;5.302;2023-07-02T09:07:05;29.70;40.70
43999;DHT22;51319;52.162;5.302;2023-07-02T09:09:33;30.60;40.30
43999;DHT22;51319;52.162;5.302;2023-07-02T09:12:10;31.60;39.50
43999;DHT22;51319;52.162;5.302;2023-07-02T09:14:37;31.80;37.70
43999;DHT22;51319;52.162;5.302;2023-07-02T09:17:08;32.10;37.50
43999;DHT22;51319;52.162;5.302;2023-07-02T09:19:36;32.20;38.10
43999;DHT22;51319;52.162;5.302;2023-07-02T09:22:14;32.00;37.20
43999;DHT22;51319;52.162;5.302;2023-07-02T09:24:51;32.40;37.50
43999;DHT22;51319;52.162;5.302;2023-07-02T09:27:20;31.40;36.50
43999;DHT22;51319;52.162;5.302;2023-07-02T09:29:51;31.30;37.20
43999;DHT22;51319;52.162;5.302;2023-07-02T09:32:26;31.70;36.10
43999;DHT22;51319;52.162;5.302;2023-07-02T09:34:55;30.80;35.70
43999;DHT22;51319;52.162;5.302;2023-07-02T09:37:25;29.70;36.60
43999;DHT22;51319;52.162;5.302;2023-07-02T09:39:53;30.20;36.60
43999;DHT22;51319;52.162;5.302;2023-07-02T09:42:22;31.20;35.90
43999;DHT22;51319;52.162;5.302;2023-07-02T09:44:52;31.10;36.30
43999;DHT22;51319;52.162;5.302;2023-07-02T09:47:19;30.00;36.80
43999;DHT22;51319;52.162;5.302;2023-07-02T09:49:52;28.90;38.00
43999;DHT22;51319;52.162;5.302;2023-07-02T09:52:20;29.10;38.50
43999;DHT22;51319;52.162;5.302;2023-07-02T09:54:47;28.90;38.50
43999;DHT22;51319;52.162;5.302;2023-07-02T09:57:14;29.30;38.50
43999;DHT22;51319;52.162;5.302;2023-07-02T09:59:42;28.90;37.80
43999;DHT22;51319;52.162;5.302;2023-07-02T10:02:10;28.10;37.90
43999;DHT22;51319;52.162;5.302;2023-07-02T10:04:55;28.30;38.70
43999;DHT22;51319;52.162;5.302;2023-07-02T10:07:28;28.80;37.60
43999;DHT22;51319;52.162;5.302;2023-07-02T10:09:55;29.50;36.70
43999;DHT22;51319;52.162;5.302;2023-07-02T10:12:29;29.30;36.70
43999;DHT22;51319;52.162;5.302;2023-07-02T10:14:58;28.40;37.00
43999;DHT22;51319;52.162;5.302;2023-07-02T10:17:27;27.60;38.30
43999;DHT22;51319;52.162;5.302;2023-07-02T10:20:03;26.90;38.30
43999;DHT22;51319;52.162;5.302;2023-07-02T10:22:46;26.20;39.20
43999;DHT22;51319;52.162;5.302;2023-07-02T10:25:28;25.70;39.10
43999;DHT22;51319;52.162;5.302;2023-07-02T10:27:56;25.30;40.40
43999;DHT22;51319;52.162;5.302;2023-07-02T10:30:36;24.90;40.80
43999;DHT22;51319;52.162;5.302;2023-07-02T10:33:14;24.90;41.70
43999;DHT22;51319;52.162;5.302;2023-07-02T10:35:43;25.10;42.30
43999;DHT22;51319;52.162;5.302;2023-07-02T10:38:21;25.00;42.40
43999;DHT22;51319;52.162;5.302;2023-07-02T10:40:59;25.50;43.40
43999;DHT22;51319;52.162;5.302;2023-07-02T10:43:31;26.90;41.60
43999;DHT22;51319;52.162;5.302;2023-07-02T10:45:59;26.60;40.70
43999;DHT22;51319;52.162;5.302;2023-07-02T10:48:29;27.10;40.40
43999;DHT22;51319;52.162;5.302;2023-07-02T10:50:56;27.90;41.00
43999;DHT22;51319;52.162;5.302;2023-07-02T10:53:24;29.00;40.20
43999;DHT22;51319;52.162;5.302;2023-07-02T10:55:57;29.40;38.90
43999;DHT22;51319;52.162;5.302;2023-07-02T10:58:25;30.80;38.60
43999;DHT22;51319;52.162;5.302;2023-07-02T11:00:52;30.70;37.60
43999;DHT22;51319;52.162;5.302;2023-07-02T11:03:24;30.50;36.10
43999;DHT22;51319;52.162;5.302;2023-07-02T11:05:53;30.90;35.80
43999;DHT22;51319;52.162;5.302;2023-07-02T11:08:22;31.50;34.30
43999;DHT22;51319;52.162;5.302;2023-07-02T11:11:09;31.50;34.80
43999;DHT22;51319;52.162;5.302;2023-07-02T11:13:44;30.60;34.50
43999;DHT22;51319;52.162;5.302;2023-07-02T11:16:26;29.30;34.90
43999;DHT22;51319;52.162;5.302;2023-07-02T11:18:53;28.70;35.70
43999;DHT22;51319;52.162;5.302;2023-07-02T11:21:21;29.70;36.70
43999;DHT22;51319;52.162;5.302;2023-07-02T11:23:48;30.30;34.70
43999;DHT22;51319;52.162;5.302;2023-07-02T11:26:15;30.60;33.50
43999;DHT22;51319;52.162;5.302;2023-07-02T11:28:49;30.90;34.00
43999;DHT22;51319;52.162;5.302;2023-07-02T11:31:25;30.60;34.20
43999;DHT22;51319;52.162;5.302;2023-07-02T11:33:53;29.70;35.50
43999;DHT22;51319;52.162;5.302;2023-07-02T11:36:22;29.80;36.00
43999;DHT22;51319;52.162;5.302;2023-07-02T11:38:51;30.10;35.50
43999;DHT22;51319;52.162;5.302;2023-07-02T11:41:19;29.90;36.10
43999;DHT22;51319;52.162;5.302;2023-07-02T11:43:47;29.30;35.40
43999;DHT22;51319;52.162;5.302;2023-07-02T11:46:14;29.60;35.90
43999;DHT22;51319;52.162;5.302;2023-07-02T11:48:42;30.80;35.20
43999;DHT22;51319;52.162;5.302;2023-07-02T11:51:09;30.80;33.60
43999;DHT22;51319;52.162;5.302;2023-07-02T11:53:36;30.10;33.50
43999;DHT22;51319;52.162;5.302;2023-07-02T11:56:03;29.20;34.70
43999;DHT22;51319;52.162;5.302;2023-07-02T11:58:30;28.40;34.00
43999;DHT22;51319;52.162;5.302;2023-07-02T12:00:57;27.90;35.20
43999;DHT22;51319;52.162;5.302;2023-07-02T12:03:24;28.30;36.00
43999;DHT22;51319;52.162;5.302;2023-07-02T12:05:51;29.00;35.30
43999;DHT22;51319;52.162;5.302;2023-07-02T12:08:18;29.90;34.20
43999;DHT22;51319;52.162;5.302;2023-07-02T12:10:45;30.90;34.10
43999;DHT22;51319;52.162;5.302;2023-07-02T12:13:12;30.90;31.90
43999;DHT22;51319;52.162;5.302;2023-07-02T12:15:39;31.20;32.20
43999;DHT22;51319;52.162;5.302;2023-07-02T12:18:08;31.90;32.50
43999;DHT22;51319;52.162;5.302;2023-07-02T12:20:35;32.20;30.90
43999;DHT22;51319;52.162;5.302;2023-07-02T12:23:03;32.30;31.80
43999;DHT22;51319;52.162;5.302;2023-07-02T12:25:30;32.60;31.20
43999;DHT22;51319;52.162;5.302;2023-07-02T12:27:57;33.10;30.90
43999;DHT22;51319;52.162;5.302;2023-07-02T12:30:24;33.40;30.10
43999;DHT22;51319;52.162;5.302;2023-07-02T12:32:50;33.90;30.50
43999;DHT22;51319;52.162;5.302;2023-07-02T12:35:17;33.50;29.50
43999;DHT22;51319;52.162;5.302;2023-07-02T12:37:46;32.60;29.90
43999;DHT22;51319;52.162;5.302;2023-07-02T12:40:13;32.90;30.40
43999;DHT22;51319;52.162;5.302;2023-07-02T12:42:41;33.30;31.50
43999;DHT22;51319;52.162;5.302;2023-07-02T12:45:09;33.70;31.50
43999;DHT22;51319;52.162;5.302;2023-07-02T12:47:41;33.30;30.90
43999;DHT22;51319;52.162;5.302;2023-07-02T12:50:09;33.10;30.20
43999;DHT22;51319;52.162;5.302;2023-07-02T12:52:36;33.10;30.90
43999;DHT22;51319;52.162;5.302;2023-07-02T12:55:03;33.20;31.20
43999;DHT22;51319;52.162;5.302;2023-07-02T12:57:31;33.00;31.30
43999;DHT22;51319;52.162;5.302;2023-07-02T12:59:58;32.10;31.40
43999;DHT22;51319;52.162;5.302;2023-07-02T13:02:25;31.30;31.90
43999;DHT22;51319;52.162;5.302;2023-07-02T13:04:52;30.70;32.60
43999;DHT22;51319;52.162;5.302;2023-07-02T13:07:19;31.00;33.20
43999;DHT22;51319;52.162;5.302;2023-07-02T13:09:46;30.60;32.80
43999;DHT22;51319;52.162;5.302;2023-07-02T13:12:13;30.00;33.70
43999;DHT22;51319;52.162;5.302;2023-07-02T13:14:41;29.50;33.90
43999;DHT22;51319;52.162;5.302;2023-07-02T13:17:07;29.40;34.30
43999;DHT22;51319;52.162;5.302;2023-07-02T13:19:34;29.40;34.10
43999;DHT22;51319;52.162;5.302;2023-07-02T13:22:02;29.40;34.10
43999;DHT22;51319;52.162;5.302;2023-07-02T13:24:33;28.90;34.80
43999;DHT22;51319;52.162;5.302;2023-07-02T13:27:06;29.20;35.00
43999;DHT22;51319;52.162;5.302;2023-07-02T13:29:35;29.50;34.60
43999;DHT22;51319;52.162;5.302;2023-07-02T13:32:02;29.30;34.40
43999;DHT22;51319;52.162;5.302;2023-07-02T13:34:29;29.40;34.60
43999;DHT22;51319;52.162;5.302;2023-07-02T13:36:56;29.70;34.70
43999;DHT22;51319;52.162;5.302;2023-07-02T13:39:24;30.00;33.60
43999;DHT22;51319;52.162;5.302;2023-07-02T13:41:51;29.50;33.20
43999;DHT22;51319;52.162;5.302;2023-07-02T13:44:18;29.10;34.00
43999;DHT22;51319;52.162;5.302;2023-07-02T13:46:45;29.10;34.20
43999;DHT22;51319;52.162;5.302;2023-07-02T13:49:13;29.40;33.60
43999;DHT22;51319;52.162;5.302;2023-07-02T13:51:40;29.40;34.30
43999;DHT22;51319;52.162;5.302;2023-07-02T13:54:09;29.10;33.40
43999;DHT22;51319;52.162;5.302;2023-07-02T13:56:36;28.50;33.40
43999;DHT22;51319;52.162;5.302;2023-07-02T13:59:03;27.90;34.00
43999;DHT22;51319;52.162;5.302;2023-07-02T14:01:31;27.70;34.10
43999;DHT22;51319;52.162;5.302;2023-07-02T14:03:59;27.60;34.80
43999;DHT22;51319;52.162;5.302;2023-07-02T14:06:27;27.50;35.30
43999;DHT22;51319;52.162;5.302;2023-07-02T14:08:54;27.40;35.00
43999;DHT22;51319;52.162;5.302;2023-07-02T14:11:22;27.20;35.70
43999;DHT22;51319;52.162;5.302;2023-07-02T14:13:49;27.40;36.50
43999;DHT22;51319;52.162;5.302;2023-07-02T14:16:19;27.30;35.30
43999;DHT22;51319;52.162;5.302;2023-07-02T14:18:46;27.00;35.60
43999;DHT22;51319;52.162;5.302;2023-07-02T14:21:13;26.70;36.00
43999;DHT22;51319;52.162;5.302;2023-07-02T14:23:41;26.50;36.50
43999;DHT22;51319;52.162;5.302;2023-07-02T14:26:08;26.40;36.70
43999;DHT22;51319;52.162;5.302;2023-07-02T14:28:35;26.40;36.70
43999;DHT22;51319;52.162;5.302;2023-07-02T14:31:03;26.40;37.00
43999;DHT22;51319;52.162;5.302;2023-07-02T14:33:33;26.60;37.00
43999;DHT22;51319;52.162;5.302;2023-07-02T14:36:01;26.60;36.90
43999;DHT22;51319;52.162;5.302;2023-07-02T14:38:29;26.60;37.00
43999;DHT22;51319;52.162;5.302;2023-07-02T14:40:56;26.30;37.50
43999;DHT22;51319;52.162;5.302;2023-07-02T14:43:27;26.20;36.70
43999;DHT22;51319;52.162;5.302;2023-07-02T14:45:57;26.10;37.20
43999;DHT22;51319;52.162;5.302;2023-07-02T14:48:24;25.90;37.60
43999;DHT22;51319;52.162;5.302;2023-07-02T14:50:57;25.90;38.00
43999;DHT22;51319;52.162;5.302;2023-07-02T14:53:26;25.90;37.60
43999;DHT22;51319;52.162;5.302;2023-07-02T14:55:55;25.90;37.40
43999;DHT22;51319;52.162;5.302;2023-07-02T14:58:23;25.70;37.60
43999;DHT22;51319;52.162;5.302;2023-07-02T15:00:52;25.50;37.90
43999;DHT22;51319;52.162;5.302;2023-07-02T15:03:21;25.30;37.70
43999;DHT22;51319;52.162;5.302;2023-07-02T15:05:50;25.30;38.20
43999;DHT22;51319;52.162;5.302;2023-07-02T15:08:18;25.20;38.00
43999;DHT22;51319;52.162;5.302;2023-07-02T15:10:47;25.10;37.70
43999;DHT22;51319;52.162;5.302;2023-07-02T15:13:15;24.90;37.60
43999;DHT22;51319;52.162;5.302;2023-07-02T15:15:43;24.90;37.40
43999;DHT22;51319;52.162;5.302;2023-07-02T15:18:10;25.00;37.70
43999;DHT22;51319;52.162;5.302;2023-07-02T15:20:37;24.90;38.10
43999;DHT22;51319;52.162;5.302;2023-07-02T15:23:04;24.90;37.10
43999;DHT22;51319;52.162;5.302;2023-07-02T15:25:31;24.80;37.40
43999;DHT22;51319;52.162;5.302;2023-07-02T15:27:59;24.60;37.40
43999;DHT22;51319;52.162;5.302;2023-07-02T15:30:29;24.50;38.40
43999;DHT22;51319;52.162;5.302;2023-07-02T15:33:00;24.60;38.50
43999;DHT22;51319;52.162;5.302;2023-07-02T15:35:27;24.70;38.20
43999;DHT22;51319;52.162;5.302;2023-07-02T15:37:54;24.70;38.50